Terminal Aerodrome Forecast
Issued by NWS

Home | Current Version | Previous Version | Graphics & Text | Print | Product List | Glossary On
Versions: 1 2 3 4 5 6 7 8 9 10 11 12 13 14 15 16 17 18 19 20 21 22 23 24 25 26
000
FTUS43 KLOT 241400 AAA
TAFMDW
TAF AMD
KMDW 241402Z 2414/2512 08005KT 6SM -RA BR SCT008 OVC025
     FM241700 31012G18KT 3SM -RASN BR OVC006
      TEMPO 2417/2419 1SM -SN BR
     FM250100 28014KT 3SM -SN BR OVC007
     FM250500 26012KT P6SM OVC015=

USA.gov is the U.S. government's official web portal to all federal, state and local government web resources and services.